Time;durP1;ratioP1;P1;durP2;ratioP2;P2;SDS_P1;SDS_P2;PMS_P1;PMS_P2;Temp;Humidity;BMP_temperature;BMP_pressure;BME280_temperature;BME280_humidity;BME280_pressure;Samples;Min_cycle;Max_cycle;Signal;HPM_P1;HPM_P2
2023/10/15 00:02:05;;;;;;;;;;;12.20;94.40;;;;;;5112367;28;19911;-71
2023/10/15 00:04:31;;;;;;;;;;;12.20;94.40;;;;;;5120646;27;19911;-71
2023/10/15 00:06:56;;;;;;;;;;;12.20;94.40;;;;;;5126817;27;19911;-71
2023/10/15 00:09:22;;;;;;;;;;;12.20;94.40;;;;;;5122998;27;19991;-71
2023/10/15 00:11:47;;;;;;;;;;;12.20;94.40;;;;;;5116779;27;19911;-71
2023/10/15 00:14:13;;;;;;;;;;;12.20;94.40;;;;;;5115523;27;19912;-71
2023/10/15 00:16:39;;;;;;;;;;;12.20;94.40;;;;;;5113663;27;19912;-71
2023/10/15 00:19:11;;;;;;;;;;;12.20;94.30;;;;;;5125541;27;19915;-71
2023/10/15 00:21:37;;;;;;;;;;;12.20;94.30;;;;;;5128396;27;19998;-71
2023/10/15 00:24:05;;;;;;;;;;;12.10;94.30;;;;;;5116803;27;20299;-71
2023/10/15 00:26:31;;;;;;;;;;;12.10;94.30;;;;;;5107187;27;19908;-71
2023/10/15 00:28:57;;;;;;;;;;;12.10;94.30;;;;;;5117585;27;20590;-71
2023/10/15 00:31:24;;;;;;;;;;;12.10;94.30;;;;;;5114915;27;19916;-71
2023/10/15 00:33:50;;;;;;;;;;;12.10;94.40;;;;;;5126348;27;19915;-71
2023/10/15 00:36:16;;;;;;;;;;;12.10;94.30;;;;;;5110235;28;19912;-71
2023/10/15 00:38:44;;;;;;;;;;;12.10;94.30;;;;;;5115179;27;19912;-71
2023/10/15 00:41:10;;;;;;;;;;;12.10;94.30;;;;;;5115686;27;19954;-71
2023/10/15 00:43:36;;;;;;;;;;;12.00;94.30;;;;;;5119581;27;22001;-71
2023/10/15 00:46:03;;;;;;;;;;;12.00;94.30;;;;;;5109555;28;19951;-71
2023/10/15 00:48:38;;;;;;;;;;;12.00;94.30;;;;;;5113501;27;20360;-71
2023/10/15 00:51:09;;;;;;;;;;;12.00;94.30;;;;;;5110747;28;19918;-71
2023/10/15 00:53:34;;;;;;;;;;;12.00;94.30;;;;;;5118265;27;19980;-71
2023/10/15 00:56:10;;;;;;;;;;;12.00;94.30;;;;;;5116488;27;19911;-71
2023/10/15 01:03:48;;;;;;;;;;;12.00;94.30;;;;;;5102886;28;19927;-70
2023/10/15 01:06:25;;;;;;;;;;;12.00;94.30;;;;;;5110890;28;19912;-70
2023/10/15 01:08:50;;;;;;;;;;;12.00;94.30;;;;;;5104205;28;19915;-70
2023/10/15 01:11:19;;;;;;;;;;;12.00;94.30;;;;;;5119613;27;19915;-70
2023/10/15 01:13:44;;;;;;;;;;;12.00;94.30;;;;;;5102839;28;19943;-70
2023/10/15 01:16:13;;;;;;;;;;;11.90;94.30;;;;;;5118172;27;20321;-70
2023/10/15 01:18:38;;;;;;;;;;;11.90;94.30;;;;;;5111065;27;20002;-70
2023/10/15 01:21:09;;;;;;;;;;;11.90;94.30;;;;;;5110607;28;19998;-70
2023/10/15 01:26:14;;;;;;;;;;;11.90;94.20;;;;;;5106601;27;20604;-70
2023/10/15 01:28:40;;;;;;;;;;;11.90;94.30;;;;;;5109887;28;19915;-70
2023/10/15 01:31:06;;;;;;;;;;;11.90;94.30;;;;;;5110686;28;19908;-70
2023/10/15 01:33:46;;;;;;;;;;;11.90;94.30;;;;;;5119560;27;19907;-70
2023/10/15 01:36:19;;;;;;;;;;;11.90;94.30;;;;;;5115017;27;20059;-70
2023/10/15 01:38:45;;;;;;;;;;;11.80;94.20;;;;;;5118621;27;19968;-70
2023/10/15 01:41:19;;;;;;;;;;;11.80;94.30;;;;;;5119433;27;19915;-70
2023/10/15 01:43:49;;;;;;;;;;;11.80;94.30;;;;;;5109539;28;20576;-70
2023/10/15 01:46:24;;;;;;;;;;;11.90;94.30;;;;;;5119093;27;19919;-70
2023/10/15 01:48:50;;;;;;;;;;;11.80;94.30;;;;;;5111058;27;19922;-70
2023/10/15 01:51:16;;;;;;;;;;;11.80;94.30;;;;;;5111139;28;19915;-70
2023/10/15 01:53:45;;;;;;;;;;;11.80;94.30;;;;;;5110504;28;19915;-70
2023/10/15 01:56:17;;;;;;;;;;;11.90;94.20;;;;;;5117969;27;20291;-70
2023/10/15 01:58:44;;;;;;;;;;;11.80;94.20;;;;;;5106088;27;19911;-70
2023/10/15 02:01:14;;;;;;;;;;;11.80;94.20;;;;;;5114390;27;20512;-70
2023/10/15 02:03:41;;;;;;;;;;;11.90;94.30;;;;;;5110078;28;19915;-70
2023/10/15 02:06:07;;;;;;;;;;;11.80;94.10;;;;;;5110406;28;19915;-70
2023/10/15 02:08:39;;;;;;;;;;;11.80;94.20;;;;;;5110738;28;19976;-70
2023/10/15 02:11:08;;;;;;;;;;;11.80;94.20;;;;;;5110590;28;19908;-70
2023/10/15 02:13:37;;;;;;;;;;;11.90;94.20;;;;;;5110414;27;20392;-70
2023/10/15 02:16:08;;;;;;;;;;;11.80;94.20;;;;;;5110298;28;19912;-70
2023/10/15 02:18:35;;;;;;;;;;;11.80;94.20;;;;;;5118589;27;19968;-70
2023/10/15 02:21:01;;;;;;;;;;;11.90;94.20;;;;;;5124712;27;19907;-70
2023/10/15 02:23:26;;;;;;;;;;;11.90;94.30;;;;;;5119742;27;19973;-70
2023/10/15 02:25:58;;;;;;;;;;;11.80;94.20;;;;;;5110530;28;19918;-70
2023/10/15 02:28:26;;;;;;;;;;;11.80;94.20;;;;;;5110373;28;19927;-70
2023/10/15 02:30:58;;;;;;;;;;;11.80;94.20;;;;;;5109187;28;19947;-70
2023/10/15 02:33:25;;;;;;;;;;;11.80;94.20;;;;;;5119119;27;19919;-71
2023/10/15 02:35:54;;;;;;;;;;;11.80;94.20;;;;;;5118598;27;20062;-71
2023/10/15 02:38:25;;;;;;;;;;;11.80;94.30;;;;;;5110655;28;19912;-71
2023/10/15 02:41:25;;;;;;;;;;;11.80;94.30;;;;;;5117802;27;20272;-71
2023/10/15 02:43:48;;;;;;;;;;;11.90;94.30;;;;;;5101327;28;19915;-71
2023/10/15 02:46:23;;;;;;;;;;;11.90;94.30;;;;;;5119007;27;20455;-71
2023/10/15 02:48:49;;;;;;;;;;;11.80;94.20;;;;;;5121231;27;19912;-71
2023/10/15 02:51:19;;;;;;;;;;;11.80;94.20;;;;;;5117841;28;20379;-71
2023/10/15 02:53:52;;;;;;;;;;;11.90;94.30;;;;;;5109925;28;19950;-71
2023/10/15 02:56:17;;;;;;;;;;;11.90;94.30;;;;;;5109897;28;19908;-71
2023/10/15 02:58:44;;;;;;;;;;;11.80;94.20;;;;;;5121655;28;19918;-71
2023/10/15 03:01:20;;;;;;;;;;;11.90;94.20;;;;;;5122181;27;19907;-71
2023/10/15 03:03:49;;;;;;;;;;;11.90;94.30;;;;;;5100760;28;20605;-71
2023/10/15 03:06:25;;;;;;;;;;;11.80;94.20;;;;;;5110030;28;19908;-71
2023/10/15 03:08:51;;;;;;;;;;;11.90;94.20;;;;;;5103018;28;19908;-71
2023/10/15 03:11:19;;;;;;;;;;;11.90;94.20;;;;;;5108388;28;20276;-71
2023/10/15 03:14:00;;;;;;;;;;;11.90;94.30;;;;;;5116081;27;19922;-71
2023/10/15 03:16:29;;;;;;;;;;;11.80;94.20;;;;;;5116149;27;19907;-71
2023/10/15 03:18:56;;;;;;;;;;;11.90;94.30;;;;;;5113951;28;19912;-71
2023/10/15 03:21:25;;;;;;;;;;;11.90;94.30;;;;;;5113734;28;19908;-71
2023/10/15 03:23:55;;;;;;;;;;;11.80;94.30;;;;;;5118370;27;20315;-71
2023/10/15 03:26:22;;;;;;;;;;;11.80;94.30;;;;;;5112213;27;19908;-71
2023/10/15 03:28:51;;;;;;;;;;;11.90;94.30;;;;;;5113739;28;19998;-71
2023/10/15 03:31:27;;;;;;;;;;;11.90;94.30;;;;;;5122304;27;20383;-71
2023/10/15 03:34:12;;;;;;;;;;;11.90;94.30;;;;;;5113680;27;19989;-71
2023/10/15 03:36:51;;;;;;;;;;;11.90;94.20;;;;;;5113514;28;19972;-71
2023/10/15 03:39:24;;;;;;;;;;;11.90;94.30;;;;;;5113620;28;19908;-71
2023/10/15 03:41:52;;;;;;;;;;;11.90;94.30;;;;;;5105961;28;19961;-70
2023/10/15 03:44:43;;;;;;;;;;;11.80;94.30;;;;;;5113340;28;19916;-70
2023/10/15 03:47:04;;;;;;;;;;;11.90;94.30;;;;;;5121551;27;20245;-70
2023/10/15 03:49:33;;;;;;;;;;;11.90;94.30;;;;;;5123170;27;20317;-70
2023/10/15 03:51:58;;;;;;;;;;;11.80;94.30;;;;;;5119485;27;20379;-70
2023/10/15 03:54:24;;;;;;;;;;;11.90;94.30;;;;;;5113047;28;19912;-70
2023/10/15 03:56:51;;;;;;;;;;;11.90;94.30;;;;;;5111888;28;19908;-70
2023/10/15 03:59:20;;;;;;;;;;;11.90;94.30;;;;;;5111736;28;19998;-70
2023/10/15 04:01:49;;;;;;;;;;;11.90;94.30;;;;;;5108518;27;20029;-70
2023/10/15 04:04:18;;;;;;;;;;;11.80;94.30;;;;;;5117067;27;19912;-70
2023/10/15 04:06:53;;;;;;;;;;;11.90;94.30;;;;;;5111157;28;20328;-70
2023/10/15 04:09:23;;;;;;;;;;;11.90;94.30;;;;;;5112868;28;19973;-70
2023/10/15 04:11:49;;;;;;;;;;;11.90;94.30;;;;;;5105030;28;19921;-70
2023/10/15 04:16:46;;;;;;;;;;;11.90;94.30;;;;;;5113163;27;19951;-70
2023/10/15 04:19:17;;;;;;;;;;;11.90;94.30;;;;;;5112282;28;19943;-70
2023/10/15 04:21:43;;;;;;;;;;;11.90;94.30;;;;;;5112440;27;19912;-70
2023/10/15 04:24:09;;;;;;;;;;;11.80;94.30;;;;;;5112122;28;19934;-70
2023/10/15 04:26:40;;;;;;;;;;;11.80;94.30;;;;;;5105139;28;19997;-70
2023/10/15 04:29:16;;;;;;;;;;;11.80;94.30;;;;;;5111069;28;20413;-70
2023/10/15 04:31:44;;;;;;;;;;;11.80;94.30;;;;;;5111900;28;20041;-70
2023/10/15 04:34:16;;;;;;;;;;;11.80;94.60;;;;;;5110847;28;19947;-70
2023/10/15 04:36:43;;;;;;;;;;;11.80;94.30;;;;;;5111803;27;19916;-70
2023/10/15 04:39:12;;;;;;;;;;;11.80;94.30;;;;;;5111882;28;20383;-70
2023/10/15 04:41:38;;;;;;;;;;;11.80;94.30;;;;;;5113937;27;19907;-70
2023/10/15 04:44:04;;;;;;;;;;;11.80;94.30;;;;;;5117257;27;20265;-70
2023/10/15 04:46:37;;;;;;;;;;;11.80;94.30;;;;;;5111400;28;20003;-70
2023/10/15 04:49:07;;;;;;;;;;;11.80;94.60;;;;;;5116514;27;19914;-70
2023/10/15 04:51:42;;;;;;;;;;;11.80;94.30;;;;;;5123057;27;20422;-70
2023/10/15 04:54:08;;;;;;;;;;;11.80;94.10;;;;;;5120726;27;20033;-70
2023/10/15 04:56:34;;;;;;;;;;;11.80;94.30;;;;;;5119635;27;20419;-70
2023/10/15 04:58:59;;;;;;;;;;;11.80;94.20;;;;;;5112174;28;19907;-70
2023/10/15 05:01:25;;;;;;;;;;;11.60;94.00;;;;;;5112963;27;19912;-70
2023/10/15 05:03:50;;;;;;;;;;;11.60;94.20;;;;;;5117820;27;19912;-70
2023/10/15 05:06:16;;;;;;;;;;;11.60;94.40;;;;;;5112067;28;19912;-70
2023/10/15 05:08:42;;;;;;;;;;;11.60;94.40;;;;;;5120360;27;19908;-70
2023/10/15 05:11:10;;;;;;;;;;;11.70;94.40;;;;;;5111693;28;20474;-70
2023/10/15 05:13:36;;;;;;;;;;;11.70;94.40;;;;;;5111690;28;19908;-70
2023/10/15 05:16:02;;;;;;;;;;;11.70;94.30;;;;;;5111719;28;19998;-70
2023/10/15 05:18:29;;;;;;;;;;;11.70;94.30;;;;;;5111657;28;19912;-70
2023/10/15 05:20:55;;;;;;;;;;;11.70;94.30;;;;;;5111374;28;19939;-70
2023/10/15 05:23:22;;;;;;;;;;;11.70;94.30;;;;;;5111664;28;19954;-70
2023/10/15 05:25:49;;;;;;;;;;;11.70;94.20;;;;;;5109397;28;20334;-70
2023/10/15 05:28:15;;;;;;;;;;;11.70;94.30;;;;;;5106748;28;19935;-70
2023/10/15 05:30:41;;;;;;;;;;;11.70;94.30;;;;;;5109930;28;19923;-70
2023/10/15 05:33:07;;;;;;;;;;;11.70;94.30;;;;;;5111597;28;19965;-70
2023/10/15 05:35:34;;;;;;;;;;;11.70;94.30;;;;;;5110865;27;19963;-70
2023/10/15 05:38:00;;;;;;;;;;;11.70;94.30;;;;;;5111090;28;19908;-70
2023/10/15 05:40:26;;;;;;;;;;;11.70;94.30;;;;;;5119776;27;19952;-70
2023/10/15 05:42:53;;;;;;;;;;;11.70;94.20;;;;;;5111092;28;20298;-70
2023/10/15 05:45:18;;;;;;;;;;;11.70;94.30;;;;;;5110994;28;20030;-70
2023/10/15 05:47:44;;;;;;;;;;;11.70;94.20;;;;;;5111423;28;20039;-70
2023/10/15 05:50:12;;;;;;;;;;;11.60;94.20;;;;;;5109943;28;19943;-70
2023/10/15 05:52:38;;;;;;;;;;;11.70;94.30;;;;;;5111053;28;19922;-70
2023/10/15 05:55:05;;;;;;;;;;;11.60;94.20;;;;;;5111486;28;20471;-70
2023/10/15 05:57:30;;;;;;;;;;;11.70;94.30;;;;;;5111136;28;19907;-70
2023/10/15 05:59:56;;;;;;;;;;;11.60;93.90;;;;;;5111865;28;19995;-70
2023/10/15 06:02:21;;;;;;;;;;;11.60;94.20;;;;;;5111433;28;20387;-70
2023/10/15 06:04:47;;;;;;;;;;;11.60;94.20;;;;;;5114989;27;19908;-71
2023/10/15 06:07:13;;;;;;;;;;;11.50;94.20;;;;;;5115282;27;19912;-71
2023/10/15 06:09:38;;;;;;;;;;;11.50;94.30;;;;;;5119058;27;19951;-70
2023/10/15 06:12:05;;;;;;;;;;;11.60;94.30;;;;;;5110736;28;19962;-70
2023/10/15 06:14:31;;;;;;;;;;;11.60;94.20;;;;;;5110412;28;19915;-70
2023/10/15 06:16:57;;;;;;;;;;;11.60;94.20;;;;;;5110912;28;20436;-70
2023/10/15 06:19:23;;;;;;;;;;;11.60;94.20;;;;;;5108968;28;19912;-70
2023/10/15 06:21:48;;;;;;;;;;;11.60;94.20;;;;;;5110801;28;19914;-70
2023/10/15 06:24:14;;;;;;;;;;;11.60;94.20;;;;;;5108974;28;20250;-71
2023/10/15 06:26:40;;;;;;;;;;;11.60;94.20;;;;;;5102599;28;19915;-71
2023/10/15 06:29:06;;;;;;;;;;;11.60;94.20;;;;;;5116219;27;19912;-71
2023/10/15 06:31:31;;;;;;;;;;;11.60;94.10;;;;;;5111277;27;19919;-70
2023/10/15 06:33:57;;;;;;;;;;;11.60;94.20;;;;;;5109748;28;19908;-70
2023/10/15 06:36:22;;;;;;;;;;;11.60;94.10;;;;;;5109093;28;20394;-70
2023/10/15 06:38:51;;;;;;;;;;;11.60;94.20;;;;;;5110381;28;19912;-70
2023/10/15 06:41:16;;;;;;;;;;;11.60;94.10;;;;;;5109529;27;20567;-70
2023/10/15 06:43:42;;;;;;;;;;;11.60;94.20;;;;;;5108111;27;19911;-70
2023/10/15 06:46:08;;;;;;;;;;;11.60;94.20;;;;;;5115761;28;19912;-70
2023/10/15 06:48:35;;;;;;;;;;;11.60;94.10;;;;;;5111640;27;19911;-70
2023/10/15 06:51:04;;;;;;;;;;;11.50;94.10;;;;;;5107421;28;20367;-70
2023/10/15 06:53:36;;;;;;;;;;;11.60;94.10;;;;;;5121693;27;19912;-70
2023/10/15 06:56:02;;;;;;;;;;;11.60;94.20;;;;;;5113694;28;19912;-70
2023/10/15 06:58:28;;;;;;;;;;;11.60;94.20;;;;;;5115943;27;20040;-70
2023/10/15 07:00:55;;;;;;;;;;;11.60;94.10;;;;;;5125155;27;19908;-70
2023/10/15 07:03:20;;;;;;;;;;;11.60;94.10;;;;;;5109332;28;20030;-70
2023/10/15 07:05:46;;;;;;;;;;;11.60;94.20;;;;;;5113439;28;20010;-70
2023/10/15 07:08:11;;;;;;;;;;;11.60;94.20;;;;;;5111940;28;20251;-70
2023/10/15 07:10:38;;;;;;;;;;;11.60;94.10;;;;;;5123941;27;19915;-70
2023/10/15 07:13:03;;;;;;;;;;;11.60;94.10;;;;;;5119498;27;19911;-70
2023/10/15 07:15:29;;;;;;;;;;;11.60;94.10;;;;;;5121171;27;19915;-70
2023/10/15 07:17:55;;;;;;;;;;;11.60;94.10;;;;;;5113280;28;19996;-70
2023/10/15 07:20:27;;;;;;;;;;;11.60;94.10;;;;;;5121237;27;19918;-70
2023/10/15 07:22:53;;;;;;;;;;;11.70;94.10;;;;;;5104020;28;19912;-70
2023/10/15 07:25:20;;;;;;;;;;;11.60;94.10;;;;;;5121558;27;19908;-70
2023/10/15 07:27:46;;;;;;;;;;;11.60;94.10;;;;;;5104118;27;19922;-70
2023/10/15 07:30:15;;;;;;;;;;;11.60;94.00;;;;;;5113134;28;19977;-70
2023/10/15 07:32:44;;;;;;;;;;;11.70;94.00;;;;;;5112992;28;20014;-70
2023/10/15 07:35:11;;;;;;;;;;;11.60;94.10;;;;;;5113194;28;19907;-70
2023/10/15 07:37:38;;;;;;;;;;;11.70;94.10;;;;;;5111271;28;19912;-70
2023/10/15 07:40:06;;;;;;;;;;;11.70;94.10;;;;;;5113299;27;20376;-70
2023/10/15 07:42:32;;;;;;;;;;;11.70;94.10;;;;;;5114081;27;20435;-70
2023/10/15 07:44:59;;;;;;;;;;;11.70;93.90;;;;;;5118390;27;19912;-70
2023/10/15 07:47:25;;;;;;;;;;;11.60;94.00;;;;;;5121490;27;20003;-70
2023/10/15 07:49:51;;;;;;;;;;;11.60;94.10;;;;;;5121596;27;20014;-70
2023/10/15 07:52:16;;;;;;;;;;;11.50;94.20;;;;;;5120722;27;19912;-70
2023/10/15 07:54:42;;;;;;;;;;;11.60;94.20;;;;;;5113934;27;20356;-70
2023/10/15 07:57:10;;;;;;;;;;;11.60;94.20;;;;;;5112106;28;19912;-70
2023/10/15 07:59:36;;;;;;;;;;;11.60;94.00;;;;;;5112810;28;19914;-70
2023/10/15 08:02:03;;;;;;;;;;;11.70;94.10;;;;;;5113102;28;20002;-70
2023/10/15 08:04:29;;;;;;;;;;;11.70;94.00;;;;;;5112517;28;19997;-70
2023/10/15 08:06:54;;;;;;;;;;;11.70;93.80;;;;;;5121281;27;20355;-70
2023/10/15 08:09:21;;;;;;;;;;;11.70;94.00;;;;;;5112793;28;20292;-70
2023/10/15 08:11:46;;;;;;;;;;;11.70;93.70;;;;;;5115916;27;19920;-70
2023/10/15 08:14:12;;;;;;;;;;;11.70;94.00;;;;;;5117348;27;19914;-70
2023/10/15 08:16:37;;;;;;;;;;;11.70;94.00;;;;;;5114131;27;19908;-70
2023/10/15 08:19:04;;;;;;;;;;;11.60;94.20;;;;;;5118399;27;20380;-70
2023/10/15 08:21:29;;;;;;;;;;;11.70;94.20;;;;;;5110963;28;19956;-70
2023/10/15 08:23:55;;;;;;;;;;;11.70;94.10;;;;;;5113193;27;20251;-70
2023/10/15 08:26:20;;;;;;;;;;;11.70;94.10;;;;;;5112146;27;19907;-70
2023/10/15 08:28:46;;;;;;;;;;;11.70;94.20;;;;;;5111794;28;19927;-70
2023/10/15 08:31:12;;;;;;;;;;;11.70;94.20;;;;;;5105067;27;20300;-71
2023/10/15 08:33:37;;;;;;;;;;;11.70;93.80;;;;;;5110083;28;19931;-70
2023/10/15 08:36:03;;;;;;;;;;;11.80;94.10;;;;;;5120292;27;19965;-70
2023/10/15 08:38:29;;;;;;;;;;;11.70;94.10;;;;;;5111225;28;19961;-70
2023/10/15 08:40:55;;;;;;;;;;;11.70;94.10;;;;;;5112032;28;20025;-70
2023/10/15 08:43:26;;;;;;;;;;;11.70;94.10;;;;;;5111520;28;19911;-70
2023/10/15 08:45:52;;;;;;;;;;;11.80;94.10;;;;;;5094038;28;19966;-70
2023/10/15 08:48:18;;;;;;;;;;;11.80;94.10;;;;;;5111229;28;19912;-70
2023/10/15 08:50:44;;;;;;;;;;;11.80;93.90;;;;;;5110707;28;20652;-70
2023/10/15 08:53:11;;;;;;;;;;;11.80;94.50;;;;;;5113292;27;19957;-70
2023/10/15 08:55:37;;;;;;;;;;;11.70;94.10;;;;;;5120150;27;19914;-70
2023/10/15 08:58:02;;;;;;;;;;;11.70;94.10;;;;;;5110001;28;19908;-70
2023/10/15 09:00:31;;;;;;;;;;;11.80;94.10;;;;;;5109810;28;19912;-70
2023/10/15 09:02:57;;;;;;;;;;;11.80;94.10;;;;;;5111458;28;19954;-70
2023/10/15 09:05:23;;;;;;;;;;;11.80;93.90;;;;;;5112520;27;19912;-70
2023/10/15 09:07:50;;;;;;;;;;;11.90;94.00;;;;;;5119297;27;19923;-70
2023/10/15 09:10:16;;;;;;;;;;;12.00;93.60;;;;;;5111599;28;19970;-70
2023/10/15 09:12:42;;;;;;;;;;;12.00;93.90;;;;;;5111794;28;19912;-70
2023/10/15 09:15:16;;;;;;;;;;;12.00;93.80;;;;;;5111919;28;19919;-70
2023/10/15 09:17:49;;;;;;;;;;;12.00;93.90;;;;;;5111066;28;19915;-70
2023/10/15 09:20:26;;;;;;;;;;;12.00;93.70;;;;;;5110821;28;20459;-70
2023/10/15 09:22:51;;;;;;;;;;;12.00;93.80;;;;;;5112062;28;20306;-70
2023/10/15 09:25:17;;;;;;;;;;;12.10;93.70;;;;;;5119416;27;19916;-70
2023/10/15 09:27:46;;;;;;;;;;;12.00;93.80;;;;;;5113595;27;20376;-70
2023/10/15 09:30:18;;;;;;;;;;;12.00;93.80;;;;;;5120565;27;20363;-70
2023/10/15 09:32:45;;;;;;;;;;;12.00;93.60;;;;;;5110221;28;20331;-70
2023/10/15 09:35:13;;;;;;;;;;;12.00;93.70;;;;;;5110982;28;19950;-70
2023/10/15 09:37:39;;;;;;;;;;;12.00;94.10;;;;;;5113399;27;19996;-70
2023/10/15 09:40:09;;;;;;;;;;;12.00;93.60;;;;;;5116638;27;20387;-70
2023/10/15 09:42:38;;;;;;;;;;;11.90;93.70;;;;;;5110238;28;19956;-71
2023/10/15 09:45:05;;;;;;;;;;;11.90;93.50;;;;;;5111402;28;19908;-70
2023/10/15 09:47:32;;;;;;;;;;;11.90;93.80;;;;;;5110737;28;19955;-70
2023/10/15 09:49:59;;;;;;;;;;;11.90;94.00;;;;;;5111970;28;19911;-70
2023/10/15 09:52:26;;;;;;;;;;;12.00;93.90;;;;;;5112072;28;19916;-70
2023/10/15 09:54:55;;;;;;;;;;;12.00;93.70;;;;;;5111503;28;19911;-70
2023/10/15 09:57:21;;;;;;;;;;;12.00;93.60;;;;;;5111790;28;19918;-70
2023/10/15 09:59:53;;;;;;;;;;;12.00;93.90;;;;;;5111738;28;19912;-70
2023/10/15 10:02:38;;;;;;;;;;;12.00;93.70;;;;;;5111679;28;19908;-70
2023/10/15 10:05:44;;;;;;;;;;;12.00;93.60;;;;;;5107234;28;20623;-70
2023/10/15 10:08:19;;;;;;;;;;;12.00;93.80;;;;;;5111742;28;20357;-70
2023/10/15 10:10:47;;;;;;;;;;;12.00;93.70;;;;;;5111403;28;19911;-71
2023/10/15 10:13:33;;;;;;;;;;;12.00;93.40;;;;;;5110671;28;19912;-70
2023/10/15 10:15:59;;;;;;;;;;;12.10;93.60;;;;;;5119804;28;20056;-70
2023/10/15 10:18:27;;;;;;;;;;;12.10;93.60;;;;;;5111464;28;19915;-70
2023/10/15 10:20:55;;;;;;;;;;;12.10;93.50;;;;;;5111591;28;20288;-70
2023/10/15 10:23:22;;;;;;;;;;;12.10;93.70;;;;;;5113357;28;20375;-70
2023/10/15 10:25:48;;;;;;;;;;;12.20;93.60;;;;;;5112950;28;19912;-70
2023/10/15 10:28:15;;;;;;;;;;;12.20;93.60;;;;;;5111017;28;19927;-70
2023/10/15 10:30:52;;;;;;;;;;;12.30;93.40;;;;;;5115642;28;20280;-70
2023/10/15 10:33:36;;;;;;;;;;;12.20;93.20;;;;;;5114456;28;20090;-70
2023/10/15 10:36:10;;;;;;;;;;;12.30;93.50;;;;;;5107486;28;20401;-70
2023/10/15 10:38:35;;;;;;;;;;;12.30;93.40;;;;;;5113901;28;19908;-70
2023/10/15 10:41:04;;;;;;;;;;;12.30;93.20;;;;;;5115516;28;20356;-70
2023/10/15 10:43:30;;;;;;;;;;;12.30;93.40;;;;;;5114025;28;19957;-70
2023/10/15 10:46:00;;;;;;;;;;;12.30;93.40;;;;;;5115357;28;19961;-70
2023/10/15 10:48:29;;;;;;;;;;;12.30;93.50;;;;;;5123522;27;19967;-70
2023/10/15 10:51:13;;;;;;;;;;;12.30;93.50;;;;;;5115034;28;19908;-70
2023/10/15 10:53:39;;;;;;;;;;;12.30;93.40;;;;;;5117044;27;19923;-70
2023/10/15 10:56:06;;;;;;;;;;;12.40;93.40;;;;;;5115435;27;19912;-70
2023/10/15 10:58:34;;;;;;;;;;;12.40;93.30;;;;;;5115189;27;19972;-70
2023/10/15 11:01:00;;;;;;;;;;;12.50;93.20;;;;;;5114986;28;19915;-70
2023/10/15 11:03:25;;;;;;;;;;;12.50;93.10;;;;;;5114871;28;19912;-70
2023/10/15 11:05:57;;;;;;;;;;;12.50;92.70;;;;;;5114859;28;20119;-70
2023/10/15 11:08:23;;;;;;;;;;;12.50;93.10;;;;;;5113547;28;20252;-70
2023/10/15 11:10:49;;;;;;;;;;;12.60;93.10;;;;;;5113349;28;19908;-70
2023/10/15 11:13:17;;;;;;;;;;;12.70;93.00;;;;;;5114167;28;19916;-70
2023/10/15 11:15:49;;;;;;;;;;;12.60;92.70;;;;;;5113226;28;19919;-70
2023/10/15 11:18:22;;;;;;;;;;;12.70;93.00;;;;;;5111750;28;20645;-70
2023/10/15 11:20:47;;;;;;;;;;;12.70;92.90;;;;;;5113213;28;20044;-70
2023/10/15 11:23:13;;;;;;;;;;;12.80;92.90;;;;;;5114247;28;20010;-70
2023/10/15 11:25:38;;;;;;;;;;;12.80;92.90;;;;;;5115038;27;19912;-71
2023/10/15 11:28:10;;;;;;;;;;;12.80;92.40;;;;;;5122488;27;19948;-70
2023/10/15 11:30:36;;;;;;;;;;;12.80;92.80;;;;;;5113980;28;19908;-70
2023/10/15 11:33:07;;;;;;;;;;;12.80;92.70;;;;;;5112570;28;20229;-70
2023/10/15 11:35:32;;;;;;;;;;;12.80;92.90;;;;;;5122362;27;19914;-70
2023/10/15 11:37:58;;;;;;;;;;;12.80;92.90;;;;;;5122402;27;19939;-70
2023/10/15 11:40:25;;;;;;;;;;;12.80;92.90;;;;;;5113991;28;19928;-70
2023/10/15 11:42:54;;;;;;;;;;;12.80;92.90;;;;;;5113421;28;20376;-70
2023/10/15 11:45:25;;;;;;;;;;;12.80;93.10;;;;;;5120963;27;19915;-70
2023/10/15 11:47:52;;;;;;;;;;;12.90;92.60;;;;;;5146635;27;19912;-70
2023/10/15 11:50:19;;;;;;;;;;;13.00;92.70;;;;;;5121248;27;19911;-70
2023/10/15 11:52:49;;;;;;;;;;;13.00;92.60;;;;;;5124384;27;19946;-70
2023/10/15 11:55:19;;;;;;;;;;;13.00;92.50;;;;;;5119249;27;19916;-70
2023/10/15 11:57:49;;;;;;;;;;;13.10;92.40;;;;;;5113461;28;19915;-70
2023/10/15 12:00:39;;;;;;;;;;;13.10;92.30;;;;;;5112007;28;19918;-70
2023/10/15 12:03:05;;;;;;;;;;;13.10;92.40;;;;;;5106808;28;19912;-70
2023/10/15 12:05:35;;;;;;;;;;;13.10;92.40;;;;;;5110834;28;19908;-70
2023/10/15 12:08:03;;;;;;;;;;;13.20;92.30;;;;;;5118349;27;20348;-70
2023/10/15 12:10:28;;;;;;;;;;;13.20;92.00;;;;;;5115327;27;19914;-70
2023/10/15 12:12:54;;;;;;;;;;;13.20;92.10;;;;;;5113031;28;19915;-70
2023/10/15 12:15:19;;;;;;;;;;;13.20;92.40;;;;;;5111665;28;19961;-70
2023/10/15 12:17:45;;;;;;;;;;;13.20;92.40;;;;;;5111128;28;20300;-70
2023/10/15 12:20:12;;;;;;;;;;;13.20;92.40;;;;;;5121371;27;20002;-70
2023/10/15 12:22:38;;;;;;;;;;;13.20;92.40;;;;;;5112505;27;19909;-70
2023/10/15 12:25:04;;;;;;;;;;;13.20;92.40;;;;;;5113392;28;20099;-70
2023/10/15 12:27:29;;;;;;;;;;;13.20;91.80;;;;;;5114526;27;19915;-70
2023/10/15 12:29:55;;;;;;;;;;;13.20;92.30;;;;;;5121411;27;19908;-70
2023/10/15 12:32:21;;;;;;;;;;;13.20;92.30;;;;;;5112046;27;20360;-70
2023/10/15 12:34:46;;;;;;;;;;;13.20;92.30;;;;;;5118373;27;19985;-70
2023/10/15 12:37:15;;;;;;;;;;;13.20;92.30;;;;;;5106314;28;19912;-70
2023/10/15 12:39:40;;;;;;;;;;;13.20;92.20;;;;;;5110540;28;19908;-70
2023/10/15 12:42:08;;;;;;;;;;;13.30;92.20;;;;;;5112212;28;19915;-70
2023/10/15 12:44:40;;;;;;;;;;;13.40;92.00;;;;;;5112275;27;19918;-70
2023/10/15 12:47:08;;;;;;;;;;;13.40;91.50;;;;;;5114831;28;19915;-70
2023/10/15 12:49:35;;;;;;;;;;;13.40;91.90;;;;;;5112145;27;20365;-70
2023/10/15 12:52:03;;;;;;;;;;;13.40;91.70;;;;;;5112563;27;19911;-70
2023/10/15 12:54:29;;;;;;;;;;;13.50;91.60;;;;;;5112532;28;20345;-70
2023/10/15 12:56:55;;;;;;;;;;;13.50;91.90;;;;;;5111199;28;19958;-70
2023/10/15 12:59:21;;;;;;;;;;;13.50;91.40;;;;;;5111476;28;19912;-70
2023/10/15 13:01:47;;;;;;;;;;;13.50;92.00;;;;;;5112525;28;19915;-70
2023/10/15 13:04:12;;;;;;;;;;;13.50;91.70;;;;;;5112258;28;19912;-70
2023/10/15 13:06:38;;;;;;;;;;;13.50;91.60;;;;;;5110507;28;20300;-70
2023/10/15 13:09:09;;;;;;;;;;;13.50;91.60;;;;;;5126079;27;20085;-70
2023/10/15 13:11:38;;;;;;;;;;;13.50;92.00;;;;;;5116074;27;20269;-70
2023/10/15 13:14:05;;;;;;;;;;;13.50;91.60;;;;;;5119245;27;20377;-70
2023/10/15 13:16:30;;;;;;;;;;;13.50;91.90;;;;;;5109708;28;19908;-70
2023/10/15 13:18:56;;;;;;;;;;;13.50;91.60;;;;;;5108314;28;20549;-70
2023/10/15 13:21:22;;;;;;;;;;;13.60;91.70;;;;;;5118671;27;19912;-71
2023/10/15 13:23:47;;;;;;;;;;;13.60;91.40;;;;;;5112299;27;19914;-71
2023/10/15 13:26:13;;;;;;;;;;;13.70;91.70;;;;;;5114655;27;19915;-70
2023/10/15 13:28:39;;;;;;;;;;;13.80;91.60;;;;;;5117826;27;19967;-70
2023/10/15 13:31:06;;;;;;;;;;;13.70;91.30;;;;;;5111482;28;19919;-70
2023/10/15 13:33:32;;;;;;;;;;;13.70;91.70;;;;;;5110745;28;19915;-70
2023/10/15 13:35:58;;;;;;;;;;;13.70;91.60;;;;;;5109624;28;19918;-70
2023/10/15 13:38:25;;;;;;;;;;;13.70;91.70;;;;;;5109217;28;20403;-70
2023/10/15 13:40:51;;;;;;;;;;;13.80;91.60;;;;;;5110978;28;19915;-70
2023/10/15 13:43:16;;;;;;;;;;;13.70;91.40;;;;;;5110714;28;20361;-70
2023/10/15 13:45:42;;;;;;;;;;;13.80;91.20;;;;;;5110208;28;19908;-70
2023/10/15 13:48:10;;;;;;;;;;;13.70;91.40;;;;;;5110531;28;20372;-70
2023/10/15 13:50:35;;;;;;;;;;;13.70;91.60;;;;;;5110715;28;19908;-70
2023/10/15 13:53:01;;;;;;;;;;;13.70;91.70;;;;;;5110415;28;19942;-70
2023/10/15 13:55:27;;;;;;;;;;;13.70;91.70;;;;;;5101832;28;19943;-70
2023/10/15 13:57:53;;;;;;;;;;;13.70;91.70;;;;;;5112950;27;19911;-70
2023/10/15 14:00:19;;;;;;;;;;;13.70;91.40;;;;;;5115201;27;19942;-70
2023/10/15 14:02:46;;;;;;;;;;;13.70;91.60;;;;;;5109354;28;19912;-70
2023/10/15 14:05:18;;;;;;;;;;;13.70;91.60;;;;;;5108780;27;20364;-70
2023/10/15 14:07:46;;;;;;;;;;;13.70;91.50;;;;;;5120462;27;19971;-70
2023/10/15 14:10:12;;;;;;;;;;;13.70;91.50;;;;;;5110953;28;19947;-70
2023/10/15 14:12:48;;;;;;;;;;;13.70;91.60;;;;;;5111681;27;19912;-70
2023/10/15 14:15:13;;;;;;;;;;;13.60;91.60;;;;;;5116181;27;19907;-70
2023/10/15 14:17:42;;;;;;;;;;;13.60;91.60;;;;;;5114344;27;19938;-71
2023/10/15 14:20:11;;;;;;;;;;;13.60;91.60;;;;;;5110823;28;19915;-71
2023/10/15 14:22:36;;;;;;;;;;;13.50;91.50;;;;;;5109753;28;19915;-71
2023/10/15 14:25:02;;;;;;;;;;;13.60;91.70;;;;;;5110187;28;19908;-71
2023/10/15 14:27:27;;;;;;;;;;;13.60;91.40;;;;;;5103979;28;20049;-71
2023/10/15 14:29:53;;;;;;;;;;;13.70;91.50;;;;;;5110672;28;19912;-71
2023/10/15 14:32:18;;;;;;;;;;;13.60;90.70;;;;;;5111041;28;19916;-70